createdAt,value
2018-04-15T00:00:24.046Z,13.60
2018-04-15T00:02:52.768Z,13.50
2018-04-15T00:05:22.258Z,13.50
2018-04-15T00:07:51.015Z,13.50
2018-04-15T00:10:19.741Z,13.50
2018-04-15T00:12:48.459Z,13.40
2018-04-15T00:15:17.177Z,13.40
2018-04-15T00:17:45.896Z,13.40
2018-04-15T00:20:14.619Z,13.20
2018-04-15T00:22:43.350Z,13.20
2018-04-15T00:25:12.077Z,13.30
2018-04-15T00:27:41.574Z,13.20
2018-04-15T00:30:11.066Z,13.10
2018-04-15T00:32:39.785Z,13.10
2018-04-15T00:35:09.277Z,13.10
2018-04-15T00:37:38.760Z,13.10
2018-04-15T00:40:07.481Z,13.10
2018-04-15T00:42:36.971Z,13.00
2018-04-15T00:45:05.368Z,13.00
2018-04-15T00:47:34.848Z,12.90
2018-04-15T00:50:03.583Z,12.90
2018-04-15T00:52:31.982Z,12.90
2018-04-15T00:55:00.714Z,12.90
2018-04-15T00:57:30.210Z,12.90
2018-04-15T00:59:58.934Z,12.90
2018-04-15T01:02:27.675Z,12.90
2018-04-15T01:04:56.400Z,12.90
2018-04-15T01:07:25.894Z,12.80
2018-04-15T01:09:54.614Z,12.80
2018-04-15T01:12:23.341Z,12.80
2018-04-15T01:14:52.066Z,12.80
2018-04-15T01:17:21.556Z,12.70
2018-04-15T01:19:50.278Z,12.70
2018-04-15T01:22:19.013Z,12.70
2018-04-15T01:24:47.727Z,12.60
2018-04-15T01:27:16.112Z,12.60
2018-04-15T01:29:45.597Z,12.60
2018-04-15T01:32:14.310Z,12.60
2018-04-15T01:34:43.789Z,12.50
2018-04-15T01:37:12.514Z,12.50
2018-04-15T01:39:41.987Z,12.50
